Decoded Metar for KLOZ (LONDON in KY, USA) (IATA:LOZ) | Meteo·Mobile Aviation Weather
aviador You're here:

KLOZ Decoded Metar

LONDON in KY, USA
Report Time2019-03-19 18:53:00
UTC Time2019-03-19 19:20:26
Flight Rules vfr VFR
Wind250° at 05 kt
W.Decomp.*RWY 24: 4.8 kt HW 1.3 kt RCW
W.Rank250° ranks 9
Current wind is below 250° avg. (7.5)
Visibility9999 m
Phenomena:N/A
Clouds:N/A
Expected CloudBase > 6,800 ft AGL from Temp-Dew spread
CeilingNone
Temp11°C (ISA -2)
Dew Point-6°C (30% RH)
AAT6.5°C
QNH1028 hPa
Density Alt548 ft
Elevation1,188 ft
Report Wrong Elevation
Raw Report
METAR KLOZ 191853Z AUTO 25005KT 10SM CLR 11/M06 A3037 RMK AO2 SLP288
T01061061=

Extra information for KLOZ:More info

Metar Taf Metar & Taf Last 4 Metars F.Rules Stats Wind Profile Meteogram Temp Stats Airport Information Weather charts Add Link Nearby VenuesMetar ALERT Operation Metar Decoded Social comments

AIRNAV info for KLOZ